JNA272 RKSI-RJFF
Flight info
| Callsign | JNA272 |
|---|---|
| Flight time | 0h 53m |
| Altitude | 37000 |
| Route | DGC G339 BEETL Y208 INVOK Z91 PSN Y782 BITUX Z53 BASEM Y685 GUKDO |
| Aircraft | B772/H-SDE3/L |
Departure
| Time | 2026-05-05 03:20 |
|---|---|
| Airport | Incheon International Airport (RKSI) |
Arrival
| Time | 2026-05-05 04:14 |
|---|---|
| Airport | Fukuoka Airport (RJFF) |
| Time | Latitude | Longitude | Altitude | Speed | Heading |
|---|---|---|---|---|---|
| 2026-05-05 02:25 | 37.46144 | 126.43404 | 35 ft | 0 kts | 351° |
| 2026-05-05 03:04 | 37.46135 | 126.43406 | 36 ft | 2 kts | 342° |
| 2026-05-05 03:04 | 37.46122 | 126.43413 | 36 ft | 2 kts | 324° |
| 2026-05-05 03:04 | 37.46110 | 126.43426 | 35 ft | 2 kts | 310° |
| 2026-05-05 03:05 | 37.46101 | 126.43441 | 35 ft | 2 kts | 295° |
| 2026-05-05 03:05 | 37.46096 | 126.43459 | 36 ft | 2 kts | 281° |
| 2026-05-05 03:05 | 37.46095 | 126.43478 | 36 ft | 2 kts | 266° |
| 2026-05-05 03:05 | 37.46097 | 126.43496 | 36 ft | 2 kts | 251° |
| 2026-05-05 03:06 | 37.46103 | 126.43513 | 36 ft | 2 kts | 237° |
| 2026-05-05 03:06 | 37.46111 | 126.43527 | 36 ft | 0 kts | 231° |
| 2026-05-05 03:06 | 37.46112 | 126.43527 | 36 ft | 0 kts | 231° |
| 2026-05-05 03:10 | 37.46093 | 126.43496 | 35 ft | 11 kts | 234° |
| 2026-05-05 03:10 | 37.46029 | 126.43382 | 35 ft | 17 kts | 233° |
| 2026-05-05 03:10 | 37.45949 | 126.43370 | 35 ft | 11 kts | 115° |
| 2026-05-05 03:10 | 37.45950 | 126.43430 | 35 ft | 0 kts | 62° |
| 2026-05-05 03:11 | 37.45967 | 126.43463 | 35 ft | 8 kts | 54° |
| 2026-05-05 03:12 | 37.46008 | 126.43536 | 35 ft | 11 kts | 54° |
| 2026-05-05 03:12 | 37.46061 | 126.43627 | 35 ft | 14 kts | 53° |
| 2026-05-05 03:12 | 37.46124 | 126.43735 | 35 ft | 16 kts | 54° |
| 2026-05-05 03:12 | 37.46194 | 126.43859 | 35 ft | 18 kts | 54° |
| 2026-05-05 03:13 | 37.46265 | 126.43986 | 35 ft | 13 kts | 55° |
| 2026-05-05 03:13 | 37.46327 | 126.44095 | 35 ft | 16 kts | 54° |
| 2026-05-05 03:13 | 37.46395 | 126.44218 | 35 ft | 18 kts | 55° |
| 2026-05-05 03:13 | 37.46473 | 126.44357 | 36 ft | 20 kts | 54° |
| 2026-05-05 03:14 | 37.46509 | 126.44421 | 35 ft | 7 kts | 54° |
| 2026-05-05 03:14 | 37.46554 | 126.44521 | 35 ft | 15 kts | 57° |
| 2026-05-05 03:14 | 37.46635 | 126.44577 | 36 ft | 14 kts | 341° |
| 2026-05-05 03:14 | 37.46725 | 126.44505 | 36 ft | 16 kts | 326° |
| 2026-05-05 03:15 | 37.46826 | 126.44418 | 36 ft | 18 kts | 324° |
| 2026-05-05 03:15 | 37.46934 | 126.44319 | 35 ft | 20 kts | 324° |
| 2026-05-05 03:15 | 37.47052 | 126.44208 | 36 ft | 21 kts | 323° |
| 2026-05-05 03:15 | 37.47183 | 126.44097 | 35 ft | 23 kts | 324° |
| 2026-05-05 03:16 | 37.47320 | 126.43973 | 36 ft | 25 kts | 323° |
| 2026-05-05 03:16 | 37.47467 | 126.43842 | 35 ft | 26 kts | 323° |
| 2026-05-05 03:16 | 37.47596 | 126.43722 | 35 ft | 21 kts | 324° |
| 2026-05-05 03:16 | 37.47726 | 126.43612 | 35 ft | 23 kts | 324° |
| 2026-05-05 03:17 | 37.47862 | 126.43489 | 36 ft | 22 kts | 325° |
| 2026-05-05 03:17 | 37.47954 | 126.43407 | 35 ft | 16 kts | 323° |
| 2026-05-05 03:17 | 37.48003 | 126.43372 | 35 ft | 5 kts | 345° |
| 2026-05-05 03:17 | 37.48040 | 126.43393 | 36 ft | 2 kts | 42° |
| 2026-05-05 03:18 | 37.48055 | 126.43430 | 35 ft | 6 kts | 66° |
| 2026-05-05 03:18 | 37.48069 | 126.43466 | 36 ft | 0 kts | 58° |
| 2026-05-05 03:18 | 37.48078 | 126.43484 | 36 ft | 4 kts | 57° |
| 2026-05-05 03:18 | 37.48100 | 126.43527 | 35 ft | 8 kts | 56° |
| 2026-05-05 03:19 | 37.48039 | 126.43758 | 35 ft | 19 kts | 146° |
| 2026-05-05 03:19 | 37.47920 | 126.43862 | 36 ft | 45 kts | 144° |
| 2026-05-05 03:19 | 37.47406 | 126.44316 | 36 ft | 133 kts | 143° |
| 2026-05-05 03:20 | 37.46506 | 126.45100 | 149 ft | 174 kts | 146° |
| 2026-05-05 03:20 | 37.45523 | 126.45972 | 862 ft | 177 kts | 144° |
| 2026-05-05 03:20 | 37.44651 | 126.46899 | 1856 ft | 165 kts | 143° |
| 2026-05-05 03:20 | 37.43774 | 126.47809 | 2523 ft | 169 kts | 143° |
| 2026-05-05 03:21 | 37.42806 | 126.48792 | 3005 ft | 188 kts | 144° |
| 2026-05-05 03:21 | 37.41740 | 126.49865 | 3478 ft | 210 kts | 144° |
| 2026-05-05 03:21 | 37.40532 | 126.51075 | 3879 ft | 232 kts | 144° |
| 2026-05-05 03:21 | 37.39232 | 126.52368 | 4151 ft | 239 kts | 143° |
| 2026-05-05 03:22 | 37.37923 | 126.53663 | 4401 ft | 241 kts | 144° |
| 2026-05-05 03:22 | 37.36583 | 126.54992 | 4653 ft | 243 kts | 144° |
| 2026-05-05 03:22 | 37.35256 | 126.56312 | 4896 ft | 245 kts | 144° |
| 2026-05-05 03:22 | 37.33912 | 126.57648 | 4963 ft | 246 kts | 144° |
| 2026-05-05 03:23 | 37.32550 | 126.59000 | 4973 ft | 254 kts | 143° |
| 2026-05-05 03:23 | 37.31133 | 126.60397 | 4972 ft | 264 kts | 143° |
| 2026-05-05 03:23 | 37.29675 | 126.61827 | 4974 ft | 266 kts | 142° |
| 2026-05-05 03:23 | 37.28419 | 126.63615 | 5167 ft | 285 kts | 121° |
| 2026-05-05 03:24 | 37.27759 | 126.65911 | 6342 ft | 281 kts | 103° |
| 2026-05-05 03:24 | 37.27558 | 126.68330 | 7334 ft | 282 kts | 93° |
| 2026-05-05 03:24 | 37.27578 | 126.70770 | 8168 ft | 287 kts | 89° |
| 2026-05-05 03:24 | 37.27687 | 126.73270 | 9044 ft | 290 kts | 88° |
| 2026-05-05 03:25 | 37.27822 | 126.75812 | 9741 ft | 294 kts | 88° |
| 2026-05-05 03:25 | 37.27961 | 126.78374 | 9953 ft | 297 kts | 88° |
| 2026-05-05 03:25 | 37.28100 | 126.80949 | 9966 ft | 295 kts | 88° |
| 2026-05-05 03:25 | 37.28237 | 126.83504 | 9962 ft | 294 kts | 88° |
| 2026-05-05 03:26 | 37.28316 | 126.86063 | 9969 ft | 294 kts | 97° |
| 2026-05-05 03:26 | 37.27713 | 126.88501 | 9963 ft | 290 kts | 123° |
| 2026-05-05 03:26 | 37.26327 | 126.90404 | 10188 ft | 307 kts | 143° |
| 2026-05-05 03:26 | 37.24558 | 126.91961 | 10693 ft | 322 kts | 148° |
| 2026-05-05 03:27 | 37.22607 | 126.93476 | 11225 ft | 337 kts | 149° |
| 2026-05-05 03:27 | 37.20577 | 126.95016 | 11776 ft | 350 kts | 149° |
| 2026-05-05 03:27 | 37.18458 | 126.96624 | 12508 ft | 358 kts | 149° |
| 2026-05-05 03:27 | 37.16331 | 126.98238 | 13366 ft | 361 kts | 149° |
| 2026-05-05 03:28 | 37.14163 | 126.99807 | 14266 ft | 363 kts | 150° |
| 2026-05-05 03:28 | 37.11954 | 127.01382 | 15067 ft | 368 kts | 150° |
| 2026-05-05 03:28 | 37.09713 | 127.02982 | 15816 ft | 373 kts | 150° |
| 2026-05-05 03:28 | 37.07489 | 127.04630 | 16587 ft | 377 kts | 148° |
| 2026-05-05 03:29 | 37.05247 | 127.06366 | 17396 ft | 381 kts | 148° |
| 2026-05-05 03:29 | 37.02974 | 127.08127 | 18127 ft | 385 kts | 148° |
| 2026-05-05 03:29 | 37.00712 | 127.09874 | 18825 ft | 390 kts | 148° |
| 2026-05-05 03:29 | 36.97576 | 127.12291 | 19694 ft | 399 kts | 148° |
| 2026-05-05 03:30 | 36.96017 | 127.13491 | 20099 ft | 403 kts | 147° |
| 2026-05-05 03:30 | 36.93736 | 127.15594 | 20720 ft | 408 kts | 138° |
| 2026-05-05 03:30 | 36.91792 | 127.18156 | 21350 ft | 413 kts | 128° |
| 2026-05-05 03:30 | 36.90178 | 127.21164 | 21930 ft | 419 kts | 120° |
| 2026-05-05 03:31 | 36.88695 | 127.24350 | 22539 ft | 425 kts | 120° |
| 2026-05-05 03:31 | 36.87232 | 127.27517 | 23140 ft | 429 kts | 119° |
| 2026-05-05 03:31 | 36.85729 | 127.30765 | 23727 ft | 434 kts | 120° |
| 2026-05-05 03:31 | 36.84147 | 127.33977 | 24316 ft | 438 kts | 125° |
| 2026-05-05 03:32 | 36.82169 | 127.36896 | 24887 ft | 443 kts | 134° |
| 2026-05-05 03:32 | 36.79978 | 127.39629 | 25498 ft | 446 kts | 135° |
| 2026-05-05 03:32 | 36.77771 | 127.42338 | 26057 ft | 450 kts | 135° |
| 2026-05-05 03:32 | 36.75530 | 127.45086 | 26574 ft | 454 kts | 136° |
| 2026-05-05 03:33 | 36.73292 | 127.47829 | 27065 ft | 459 kts | 136° |
| 2026-05-05 03:33 | 36.71001 | 127.50635 | 27584 ft | 463 kts | 136° |
| 2026-05-05 03:33 | 36.68680 | 127.53476 | 28099 ft | 467 kts | 136° |
| 2026-05-05 03:33 | 36.66369 | 127.56303 | 28598 ft | 471 kts | 136° |
| 2026-05-05 03:34 | 36.64032 | 127.59158 | 29084 ft | 475 kts | 136° |
| 2026-05-05 03:34 | 36.61681 | 127.62028 | 29626 ft | 477 kts | 136° |
| 2026-05-05 03:34 | 36.59324 | 127.64904 | 30312 ft | 475 kts | 136° |
| 2026-05-05 03:34 | 36.56962 | 127.67784 | 30960 ft | 473 kts | 137° |
| 2026-05-05 03:35 | 36.54627 | 127.70628 | 31542 ft | 472 kts | 138° |
| 2026-05-05 03:35 | 36.52290 | 127.73472 | 32062 ft | 471 kts | 138° |
| 2026-05-05 03:35 | 36.49942 | 127.76326 | 32601 ft | 471 kts | 138° |
| 2026-05-05 03:35 | 36.47565 | 127.79213 | 33127 ft | 470 kts | 139° |
| 2026-05-05 03:36 | 36.45213 | 127.82067 | 33668 ft | 469 kts | 139° |
| 2026-05-05 03:36 | 36.42863 | 127.84918 | 34198 ft | 467 kts | 139° |
| 2026-05-05 03:36 | 36.40535 | 127.87743 | 34610 ft | 467 kts | 139° |
| 2026-05-05 03:36 | 36.38193 | 127.90580 | 34979 ft | 469 kts | 140° |
| 2026-05-05 03:37 | 36.35867 | 127.93395 | 35089 ft | 472 kts | 140° |
| 2026-05-05 03:37 | 36.33512 | 127.96243 | 35099 ft | 470 kts | 140° |
| 2026-05-05 03:37 | 36.28864 | 128.01860 | 35104 ft | 470 kts | 140° |
| 2026-05-05 03:38 | 36.24153 | 128.07536 | 35100 ft | 470 kts | 140° |
| 2026-05-05 03:38 | 36.19472 | 128.13165 | 35096 ft | 471 kts | 140° |
| 2026-05-05 03:39 | 36.14750 | 128.18834 | 35091 ft | 471 kts | 140° |
| 2026-05-05 03:39 | 36.10077 | 128.24435 | 35083 ft | 470 kts | 140° |
| 2026-05-05 03:40 | 36.05344 | 128.30095 | 35084 ft | 471 kts | 140° |
| 2026-05-05 03:40 | 36.00649 | 128.35702 | 35092 ft | 470 kts | 140° |
| 2026-05-05 03:41 | 35.95948 | 128.41306 | 35098 ft | 471 kts | 141° |
| 2026-05-05 03:41 | 35.91235 | 128.46916 | 35106 ft | 470 kts | 141° |
| 2026-05-05 03:42 | 35.86479 | 128.52472 | 35109 ft | 468 kts | 145° |
| 2026-05-05 03:42 | 35.80952 | 128.56505 | 35107 ft | 456 kts | 165° |
| 2026-05-05 03:43 | 35.74901 | 128.58112 | 35102 ft | 440 kts | 182° |
| 2026-05-05 03:43 | 35.68838 | 128.57854 | 35126 ft | 434 kts | 188° |
| 2026-05-05 03:44 | 35.62863 | 128.57384 | 35114 ft | 432 kts | 189° |
| 2026-05-05 03:44 | 35.56845 | 128.56876 | 35109 ft | 432 kts | 189° |
| 2026-05-05 03:45 | 35.50853 | 128.56534 | 35118 ft | 437 kts | 182° |
| 2026-05-05 03:45 | 35.44820 | 128.58083 | 35119 ft | 451 kts | 165° |
| 2026-05-05 03:46 | 35.39048 | 128.61379 | 35119 ft | 458 kts | 160° |
| 2026-05-05 03:46 | 35.33338 | 128.64783 | 35123 ft | 457 kts | 160° |
| 2026-05-05 03:47 | 35.27609 | 128.68184 | 35117 ft | 457 kts | 161° |
| 2026-05-05 03:47 | 35.21884 | 128.71571 | 35123 ft | 458 kts | 161° |
| 2026-05-05 03:48 | 35.16136 | 128.74968 | 35131 ft | 456 kts | 161° |
| 2026-05-05 03:48 | 35.10430 | 128.78334 | 35132 ft | 455 kts | 161° |
| 2026-05-05 03:49 | 35.04662 | 128.81737 | 35139 ft | 458 kts | 161° |
| 2026-05-05 03:49 | 34.99030 | 128.85355 | 35133 ft | 460 kts | 155° |
| 2026-05-05 03:50 | 34.93581 | 128.89468 | 35141 ft | 464 kts | 155° |
| 2026-05-05 03:50 | 34.88082 | 128.93625 | 35135 ft | 463 kts | 155° |
| 2026-05-05 03:51 | 34.82643 | 128.97723 | 35146 ft | 462 kts | 155° |
| 2026-05-05 03:51 | 34.77150 | 129.01855 | 35133 ft | 462 kts | 156° |
| 2026-05-05 03:52 | 34.71698 | 129.05948 | 35135 ft | 460 kts | 156° |
| 2026-05-05 03:52 | 34.66216 | 129.10056 | 34973 ft | 460 kts | 156° |
| 2026-05-05 03:53 | 34.63523 | 129.12071 | 34217 ft | 464 kts | 156° |
| 2026-05-05 03:53 | 34.60757 | 129.14134 | 33063 ft | 476 kts | 155° |
| 2026-05-05 03:53 | 34.57873 | 129.16287 | 32036 ft | 482 kts | 155° |
| 2026-05-05 03:53 | 34.55035 | 129.18410 | 31503 ft | 476 kts | 154° |
| 2026-05-05 03:54 | 34.52263 | 129.20485 | 31175 ft | 467 kts | 154° |
| 2026-05-05 03:54 | 34.49507 | 129.22543 | 30721 ft | 460 kts | 155° |
| 2026-05-05 03:54 | 34.46791 | 129.24568 | 30139 ft | 458 kts | 154° |
| 2026-05-05 03:54 | 34.44075 | 129.26592 | 29495 ft | 456 kts | 154° |
| 2026-05-05 03:55 | 34.41401 | 129.28581 | 28953 ft | 452 kts | 154° |
| 2026-05-05 03:55 | 34.38755 | 129.30548 | 28499 ft | 446 kts | 154° |
| 2026-05-05 03:55 | 34.36127 | 129.32503 | 28009 ft | 441 kts | 154° |
| 2026-05-05 03:55 | 34.33527 | 129.34433 | 27430 ft | 439 kts | 154° |
| 2026-05-05 03:56 | 34.30935 | 129.36354 | 26847 ft | 436 kts | 154° |
| 2026-05-05 03:56 | 34.28328 | 129.38286 | 26277 ft | 433 kts | 153° |
| 2026-05-05 03:56 | 34.25758 | 129.40190 | 25756 ft | 429 kts | 153° |
| 2026-05-05 03:56 | 34.23248 | 129.42049 | 25264 ft | 425 kts | 153° |
| 2026-05-05 03:57 | 34.20729 | 129.43912 | 24721 ft | 422 kts | 153° |
| 2026-05-05 03:57 | 34.18245 | 129.45747 | 24152 ft | 420 kts | 153° |
| 2026-05-05 03:57 | 34.15742 | 129.47595 | 23624 ft | 416 kts | 153° |
| 2026-05-05 03:57 | 34.13290 | 129.49405 | 23134 ft | 413 kts | 152° |
| 2026-05-05 03:58 | 34.10863 | 129.51195 | 22641 ft | 410 kts | 153° |
| 2026-05-05 03:58 | 34.08443 | 129.52980 | 22158 ft | 406 kts | 152° |
| 2026-05-05 03:58 | 34.06026 | 129.54759 | 21686 ft | 402 kts | 152° |
| 2026-05-05 03:58 | 34.03646 | 129.56511 | 21183 ft | 399 kts | 152° |
| 2026-05-05 03:59 | 34.01271 | 129.58258 | 20711 ft | 396 kts | 152° |
| 2026-05-05 03:59 | 33.99239 | 129.59752 | 20296 ft | 393 kts | 152° |
| 2026-05-05 03:59 | 33.97051 | 129.61360 | 19858 ft | 389 kts | 152° |
| 2026-05-05 03:59 | 33.94758 | 129.63043 | 19389 ft | 386 kts | 152° |
| 2026-05-05 04:00 | 33.92450 | 129.64737 | 18919 ft | 382 kts | 151° |
| 2026-05-05 04:00 | 33.90185 | 129.66399 | 18427 ft | 379 kts | 152° |
| 2026-05-05 04:00 | 33.87958 | 129.68030 | 17934 ft | 375 kts | 152° |
| 2026-05-05 04:00 | 33.85717 | 129.69672 | 17453 ft | 372 kts | 152° |
| 2026-05-05 04:01 | 33.83543 | 129.71263 | 16981 ft | 368 kts | 151° |
| 2026-05-05 04:01 | 33.81430 | 129.73009 | 16471 ft | 368 kts | 142° |
| 2026-05-05 04:01 | 33.79679 | 129.75297 | 15950 ft | 369 kts | 128° |
| 2026-05-05 04:01 | 33.78471 | 129.77963 | 15706 ft | 362 kts | 113° |
| 2026-05-05 04:02 | 33.77882 | 129.80867 | 15629 ft | 351 kts | 97° |
| 2026-05-05 04:02 | 33.77967 | 129.83745 | 15615 ft | 339 kts | 82° |
| 2026-05-05 04:02 | 33.78514 | 129.86424 | 15631 ft | 325 kts | 75° |
| 2026-05-05 04:02 | 33.79138 | 129.89009 | 15522 ft | 316 kts | 74° |
| 2026-05-05 04:03 | 33.79848 | 129.91493 | 15214 ft | 314 kts | 70° |
| 2026-05-05 04:03 | 33.80651 | 129.93926 | 14902 ft | 313 kts | 69° |
| 2026-05-05 04:03 | 33.81490 | 129.96313 | 14623 ft | 310 kts | 68° |
| 2026-05-05 04:03 | 33.82352 | 129.98718 | 14179 ft | 307 kts | 68° |
| 2026-05-05 04:04 | 33.83190 | 130.01048 | 13678 ft | 304 kts | 68° |
| 2026-05-05 04:04 | 33.84030 | 130.03383 | 13184 ft | 301 kts | 68° |
| 2026-05-05 04:04 | 33.84855 | 130.05678 | 12666 ft | 298 kts | 68° |
| 2026-05-05 04:04 | 33.85669 | 130.07944 | 12145 ft | 295 kts | 68° |
| 2026-05-05 04:05 | 33.86480 | 130.10205 | 11671 ft | 292 kts | 68° |
| 2026-05-05 04:05 | 33.87278 | 130.12428 | 11181 ft | 290 kts | 68° |
| 2026-05-05 04:05 | 33.88075 | 130.14651 | 10675 ft | 287 kts | 68° |
| 2026-05-05 04:05 | 33.88851 | 130.16818 | 10199 ft | 283 kts | 68° |
| 2026-05-05 04:06 | 33.89603 | 130.19000 | 9711 ft | 280 kts | 75° |
| 2026-05-05 04:06 | 33.89770 | 130.21280 | 9144 ft | 276 kts | 101° |
| 2026-05-05 04:06 | 33.89070 | 130.23378 | 8585 ft | 271 kts | 129° |
| 2026-05-05 04:06 | 33.87723 | 130.24933 | 8105 ft | 261 kts | 144° |
| 2026-05-05 04:07 | 33.86263 | 130.26099 | 7785 ft | 247 kts | 149° |
| 2026-05-05 04:07 | 33.84782 | 130.27159 | 7163 ft | 247 kts | 150° |
| 2026-05-05 04:07 | 33.83331 | 130.28166 | 6669 ft | 244 kts | 150° |
| 2026-05-05 04:07 | 33.81885 | 130.29199 | 6067 ft | 245 kts | 149° |
| 2026-05-05 04:08 | 33.80407 | 130.30327 | 5189 ft | 252 kts | 148° |
| 2026-05-05 04:08 | 33.78971 | 130.31419 | 4848 ft | 237 kts | 148° |
| 2026-05-05 04:08 | 33.77634 | 130.32459 | 4049 ft | 226 kts | 147° |
| 2026-05-05 04:08 | 33.76387 | 130.33513 | 3583 ft | 208 kts | 144° |
| 2026-05-05 04:09 | 33.75288 | 130.34549 | 3072 ft | 195 kts | 147° |
| 2026-05-05 04:09 | 33.74094 | 130.34970 | 2886 ft | 170 kts | 178° |
| 2026-05-05 04:09 | 33.72990 | 130.35211 | 2742 ft | 160 kts | 155° |
| 2026-05-05 04:09 | 33.72036 | 130.35892 | 2561 ft | 156 kts | 150° |
| 2026-05-05 04:10 | 33.71114 | 130.36543 | 2387 ft | 155 kts | 151° |
| 2026-05-05 04:10 | 33.70170 | 130.37184 | 2221 ft | 151 kts | 151° |
| 2026-05-05 04:10 | 33.69289 | 130.37785 | 2047 ft | 142 kts | 152° |
| 2026-05-05 04:10 | 33.68430 | 130.38370 | 1884 ft | 139 kts | 152° |
| 2026-05-05 04:11 | 33.67600 | 130.38936 | 1720 ft | 138 kts | 152° |
| 2026-05-05 04:11 | 33.66763 | 130.39506 | 1550 ft | 137 kts | 152° |
| 2026-05-05 04:11 | 33.65933 | 130.40073 | 1383 ft | 136 kts | 152° |
| 2026-05-05 04:11 | 33.65111 | 130.40633 | 1212 ft | 135 kts | 152° |
| 2026-05-05 04:12 | 33.64286 | 130.41196 | 1045 ft | 135 kts | 151° |
| 2026-05-05 04:12 | 33.63473 | 130.41751 | 877 ft | 134 kts | 152° |
| 2026-05-05 04:12 | 33.62663 | 130.42300 | 714 ft | 133 kts | 152° |
| 2026-05-05 04:12 | 33.61858 | 130.42851 | 537 ft | 133 kts | 150° |
| 2026-05-05 04:13 | 33.61126 | 130.43350 | 392 ft | 131 kts | 150° |
| 2026-05-05 04:13 | 33.60329 | 130.43890 | 221 ft | 134 kts | 152° |
| 2026-05-05 04:13 | 33.59537 | 130.44434 | 55 ft | 128 kts | 151° |
| 2026-05-05 04:13 | 33.58869 | 130.44871 | 51 ft | 89 kts | 148° |
| 2026-05-05 04:14 | 33.58459 | 130.45160 | 51 ft | 28 kts | 149° |
| 2026-05-05 04:14 | 33.58279 | 130.45245 | 51 ft | 24 kts | 171° |
| 2026-05-05 04:14 | 33.58125 | 130.45258 | 51 ft | 20 kts | 179° |
| 2026-05-05 04:14 | 33.57996 | 130.45226 | 51 ft | 18 kts | 205° |
| 2026-05-05 04:15 | 33.57961 | 130.45110 | 51 ft | 18 kts | 308° |
| 2026-05-05 04:15 | 33.58051 | 130.45044 | 51 ft | 14 kts | 331° |
| 2026-05-05 04:15 | 33.58150 | 130.44978 | 51 ft | 17 kts | 331° |
| 2026-05-05 04:15 | 33.58261 | 130.44900 | 51 ft | 19 kts | 328° |
| 2026-05-05 04:16 | 33.58380 | 130.44810 | 51 ft | 21 kts | 328° |
| 2026-05-05 04:16 | 33.58517 | 130.44725 | 51 ft | 23 kts | 333° |
| 2026-05-05 04:16 | 33.58662 | 130.44626 | 51 ft | 24 kts | 330° |
| 2026-05-05 04:16 | 33.58808 | 130.44524 | 51 ft | 17 kts | 330° |
| 2026-05-05 04:17 | 33.58921 | 130.44446 | 51 ft | 19 kts | 329° |
| 2026-05-05 04:17 | 33.59048 | 130.44362 | 51 ft | 21 kts | 332° |
| 2026-05-05 04:17 | 33.59188 | 130.44338 | 51 ft | 21 kts | 42° |
| 2026-05-05 04:17 | 33.59270 | 130.44499 | 51 ft | 23 kts | 62° |
| 2026-05-05 04:18 | 33.59346 | 130.44664 | 51 ft | 16 kts | 60° |
| 2026-05-05 04:18 | 33.59405 | 130.44788 | 51 ft | 13 kts | 76° |
| 2026-05-05 04:18 | 33.59414 | 130.44862 | 51 ft | 6 kts | 67° |
| 2026-05-05 04:18 | 33.59438 | 130.44907 | 51 ft | 2 kts | 59° |
| 2026-05-05 04:19 | 33.59443 | 130.44919 | 51 ft | 0 kts | 59° |